Decoded Metar for CYKP ( in ) (IATA:) | Meteo·Mobile Aviation Weather
aviador You're here:

CYKP Decoded Metar

in
Report Time2019-03-19 18:00:00
UTC Time2019-03-19 18:45:31
Flight Rules vfr VFR
Wind200° at 12 Gusting to 19 kt
W.Decomp.*RWY 27: 4.1 kt HW 11.3 kt LCW
W.Rank200° ranks 12
Current wind is above 200° avg. (6.9)
Visibility9999 m
Phenomena:Shallow Snow Grains
Clouds:Broken 046 Hf
Expected CloudBase > 3,600 ft AGL from Temp-Dew spread
Ceiling4,600 ft
Temp05°C
Dew Point-4°C (53% RH)
AAT-1.8°C
QNH1015 hPa
Raw Report
METAR CYKP 191800Z AUTO 20012G19KT 170V250 9SM BKN046 05/M04 A2996 RMK ICG MISG SLP158=

Extra information for CYKP:More info

Social comments